createdAt,value
2019-05-28T00:00:23.868Z,7.43
2019-05-28T00:02:54.618Z,6.27
2019-05-28T00:05:25.268Z,5.73
2019-05-28T00:07:55.625Z,5.17
2019-05-28T00:10:29.680Z,5.50
2019-05-28T00:13:00.276Z,5.87
2019-05-28T00:15:30.999Z,6.67
2019-05-28T00:18:01.836Z,8.13
2019-05-28T00:20:32.760Z,7.37
2019-05-28T00:23:03.209Z,7.20
2019-05-28T00:25:34.771Z,7.60
2019-05-28T00:28:05.281Z,8.17
2019-05-28T00:30:36.398Z,6.03
2019-05-28T00:33:06.979Z,6.23
2019-05-28T00:35:38.037Z,5.83
2019-05-28T00:38:08.835Z,7.13
2019-05-28T00:40:39.848Z,4.93
2019-05-28T00:43:10.868Z,7.60
2019-05-28T00:45:41.702Z,6.73
2019-05-28T00:48:12.681Z,4.93
2019-05-28T00:50:43.224Z,5.67
2019-05-28T00:53:13.647Z,5.87
2019-05-28T00:55:45.994Z,5.70
2019-05-28T00:58:17.650Z,6.40
2019-05-28T01:00:49.663Z,8.40
2019-05-28T01:03:20.430Z,4.67
2019-05-28T01:05:50.922Z,8.03
2019-05-28T01:08:21.675Z,6.67
2019-05-28T01:10:52.300Z,5.77
2019-05-28T01:13:23.150Z,4.27
2019-05-28T01:15:54.117Z,6.17
2019-05-28T01:18:25.196Z,7.30
2019-05-28T01:20:56.907Z,6.13
2019-05-28T01:23:27.411Z,4.57
2019-05-28T01:25:58.155Z,7.60
2019-05-28T01:28:29.062Z,10.87
2019-05-28T01:31:01.247Z,7.57
2019-05-28T01:33:32.128Z,10.10
2019-05-28T01:36:02.609Z,8.53
2019-05-28T01:38:35.629Z,4.23
2019-05-28T01:41:06.483Z,4.33
2019-05-28T01:43:37.084Z,8.13
2019-05-28T01:46:07.729Z,4.83
2019-05-28T01:48:38.341Z,5.07
2019-05-28T01:51:09.340Z,4.63
2019-05-28T01:53:42.367Z,3.90
2019-05-28T01:56:13.018Z,6.43
2019-05-28T01:58:43.867Z,4.00
2019-05-28T02:01:14.432Z,7.03
2019-05-28T02:03:45.091Z,5.30
2019-05-28T02:06:15.589Z,5.53
2019-05-28T02:08:46.439Z,2.77
2019-05-28T02:11:16.924Z,5.37
2019-05-28T02:13:47.616Z,4.67
2019-05-28T02:16:18.250Z,5.70
2019-05-28T02:18:50.346Z,5.73
2019-05-28T02:21:21.002Z,4.57
2019-05-28T02:23:51.525Z,3.63
2019-05-28T02:26:22.156Z,4.67
2019-05-28T02:28:54.354Z,5.30
2019-05-28T02:31:28.380Z,6.43
2019-05-28T02:33:58.874Z,7.73
2019-05-28T02:36:29.549Z,5.47
2019-05-28T02:38:59.820Z,5.17
2019-05-28T02:41:30.278Z,4.33
2019-05-28T02:44:00.644Z,3.60
2019-05-28T02:46:31.688Z,4.70
2019-05-28T02:49:02.293Z,4.90
2019-05-28T02:51:32.907Z,5.80
2019-05-28T02:54:04.038Z,4.10
2019-05-28T02:56:36.216Z,7.43
2019-05-28T02:59:06.383Z,5.57
2019-05-28T03:01:44.452Z,7.83
2019-05-28T03:04:10.878Z,7.77
2019-05-28T03:06:44.484Z,8.53
2019-05-28T03:09:15.059Z,2.70
2019-05-28T03:11:45.435Z,7.97
2019-05-28T03:14:15.685Z,9.67
2019-05-28T03:16:49.061Z,9.73
2019-05-28T03:19:21.130Z,12.33
2019-05-28T03:21:51.802Z,6.90
2019-05-28T03:24:23.657Z,6.87
2019-05-28T03:26:55.265Z,10.30
2019-05-28T03:29:25.542Z,9.47
2019-05-28T03:32:07.561Z,7.27
2019-05-28T03:34:28.457Z,5.53
2019-05-28T03:37:00.728Z,6.73
2019-05-28T03:39:32.923Z,8.80
2019-05-28T03:42:03.467Z,7.17
2019-05-28T03:44:34.314Z,7.20
2019-05-28T03:47:04.850Z,5.90
2019-05-28T03:49:36.112Z,5.60
2019-05-28T03:52:06.919Z,5.20
2019-05-28T03:54:37.357Z,6.87
2019-05-28T03:57:08.198Z,10.13
2019-05-28T03:59:39.160Z,6.20
2019-05-28T04:02:22.682Z,8.87
2019-05-28T04:04:43.737Z,10.33
2019-05-28T04:07:14.761Z,8.80
2019-05-28T04:09:46.740Z,6.13
2019-05-28T04:12:17.517Z,7.97
2019-05-28T04:14:48.793Z,7.40
2019-05-28T04:17:21.395Z,5.47
2019-05-28T04:19:52.909Z,6.33
2019-05-28T04:22:23.991Z,8.83
2019-05-28T04:24:55.150Z,4.57
2019-05-28T04:27:28.159Z,6.43
2019-05-28T04:29:58.973Z,7.40
2019-05-28T04:32:39.919Z,8.87
2019-05-28T04:35:05.600Z,8.77
2019-05-28T04:37:38.659Z,10.37
2019-05-28T04:40:09.701Z,6.90
2019-05-28T04:42:41.709Z,6.93
2019-05-28T04:45:13.522Z,7.30
2019-05-28T04:47:47.992Z,9.00
2019-05-28T04:50:18.939Z,9.47
2019-05-28T04:52:51.883Z,7.97
2019-05-28T04:55:22.978Z,7.07
2019-05-28T04:57:55.000Z,7.03
2019-05-28T05:00:26.175Z,7.60
2019-05-28T05:03:00.505Z,6.33
2019-05-28T05:05:31.160Z,5.27
2019-05-28T05:08:02.817Z,9.00
2019-05-28T05:10:33.881Z,6.20
2019-05-28T05:13:04.988Z,6.93
2019-05-28T05:15:38.091Z,9.03
2019-05-28T05:18:08.773Z,14.53
2019-05-28T05:20:40.449Z,8.47
2019-05-28T05:23:11.650Z,6.50
2019-05-28T05:25:42.953Z,7.00
2019-05-28T05:28:14.338Z,7.47
2019-05-28T05:30:45.180Z,6.27
2019-05-28T05:33:20.202Z,7.80
2019-05-28T05:35:48.805Z,5.13
2019-05-28T05:38:19.561Z,7.67
2019-05-28T05:40:50.419Z,9.37
2019-05-28T05:43:21.305Z,6.60
2019-05-28T05:45:51.966Z,7.00
2019-05-28T05:48:24.250Z,7.90
2019-05-28T05:50:55.074Z,8.87
2019-05-28T05:53:26.743Z,5.83
2019-05-28T05:55:58.101Z,5.60
2019-05-28T05:58:29.253Z,7.20
2019-05-28T06:01:00.512Z,10.00
2019-05-28T06:03:40.154Z,5.93
2019-05-28T06:06:03.898Z,9.37
2019-05-28T06:08:37.590Z,8.63
2019-05-28T06:11:08.618Z,7.67
2019-05-28T06:13:42.182Z,5.40
2019-05-28T06:16:13.177Z,9.33
2019-05-28T06:18:43.990Z,5.17
2019-05-28T06:21:18.728Z,10.93
2019-05-28T06:23:48.868Z,10.73
2019-05-28T06:26:20.006Z,8.43
2019-05-28T06:28:51.129Z,6.87
2019-05-28T06:31:22.662Z,4.53
2019-05-28T06:33:57.218Z,9.03
2019-05-28T06:36:26.677Z,7.67
2019-05-28T06:38:57.815Z,6.43
2019-05-28T06:41:28.886Z,5.33
2019-05-28T06:44:00.016Z,4.37
2019-05-28T06:46:31.621Z,9.13
2019-05-28T06:49:02.509Z,8.63
2019-05-28T06:51:33.463Z,6.77
2019-05-28T06:54:04.657Z,4.17
2019-05-28T06:56:35.219Z,6.83
2019-05-28T06:59:06.558Z,6.13
2019-05-28T07:01:37.585Z,5.50
2019-05-28T07:04:13.905Z,3.90
2019-05-28T07:06:41.229Z,5.10
2019-05-28T07:09:11.973Z,7.97
2019-05-28T07:11:42.831Z,6.47
2019-05-28T07:14:13.827Z,5.33
2019-05-28T07:16:53.208Z,4.93
2019-05-28T07:19:24.665Z,6.10
2019-05-28T07:21:49.983Z,4.33
2019-05-28T07:24:20.954Z,6.73
2019-05-28T07:26:51.688Z,8.30
2019-05-28T07:29:22.972Z,6.17
2019-05-28T07:31:53.807Z,4.63
2019-05-28T07:34:30.890Z,6.03
2019-05-28T07:36:57.470Z,8.47
2019-05-28T07:39:28.261Z,5.10
2019-05-28T07:41:59.228Z,6.00
2019-05-28T07:44:30.111Z,4.93
2019-05-28T07:47:00.776Z,4.63
2019-05-28T07:49:31.516Z,6.60
2019-05-28T07:52:02.374Z,7.30
2019-05-28T07:54:33.100Z,7.20
2019-05-28T07:57:06.651Z,7.47
2019-05-28T07:59:37.593Z,5.10
2019-05-28T08:02:08.300Z,6.57
2019-05-28T08:04:47.259Z,4.53
2019-05-28T08:07:11.395Z,5.87
2019-05-28T08:09:42.151Z,6.93
2019-05-28T08:12:13.667Z,7.13
2019-05-28T08:14:44.823Z,4.50
2019-05-28T08:17:15.567Z,7.83
2019-05-28T08:19:49.390Z,8.17
2019-05-28T08:22:21.026Z,4.63
2019-05-28T08:24:54.885Z,7.70
2019-05-28T08:27:24.463Z,7.17
2019-05-28T08:29:55.182Z,7.93
2019-05-28T08:32:29.113Z,5.80
2019-05-28T08:35:05.522Z,7.60
2019-05-28T08:37:32.494Z,5.50
2019-05-28T08:40:05.115Z,3.13
2019-05-28T08:42:36.200Z,5.27
2019-05-28T08:45:07.929Z,5.70
2019-05-28T08:47:39.614Z,6.60
2019-05-28T08:50:11.340Z,7.17
2019-05-28T08:52:41.986Z,5.03
2019-05-28T08:55:14.619Z,5.07
2019-05-28T08:57:47.247Z,3.73
2019-05-28T09:00:36.622Z,3.40
2019-05-28T09:03:07.575Z,3.80
2019-05-28T09:05:38.415Z,5.57
2019-05-28T09:08:09.121Z,2.57
2019-05-28T09:10:39.851Z,6.30
2019-05-28T09:13:10.579Z,7.33
2019-05-28T09:15:41.453Z,2.97
2019-05-28T09:18:12.447Z,5.23
2019-05-28T09:20:43.210Z,4.90
2019-05-28T09:23:13.988Z,7.73
2019-05-28T09:25:44.875Z,3.97
2019-05-28T09:28:29.081Z,4.10
2019-05-28T09:30:48.770Z,3.97
2019-05-28T09:33:19.563Z,4.13
2019-05-28T09:36:06.437Z,5.57
2019-05-28T09:38:23.817Z,3.57
2019-05-28T09:40:55.151Z,4.03
2019-05-28T09:43:26.507Z,6.40
2019-05-28T09:45:57.423Z,3.40
2019-05-28T09:48:28.095Z,4.47
2019-05-28T09:50:59.023Z,4.07
2019-05-28T09:53:29.769Z,4.13
2019-05-28T09:56:00.631Z,2.40
2019-05-28T09:58:31.345Z,5.77
2019-05-28T10:01:02.310Z,4.37
2019-05-28T10:03:33.584Z,3.63
2019-05-28T10:06:16.116Z,3.07
2019-05-28T10:08:37.154Z,2.27
2019-05-28T10:11:07.876Z,6.17
2019-05-28T10:13:41.510Z,5.33
2019-05-28T10:16:11.440Z,5.33
2019-05-28T10:18:42.344Z,7.33
2019-05-28T10:21:18.257Z,3.53
2019-05-28T10:23:45.125Z,2.63
2019-05-28T10:26:16.636Z,3.97
2019-05-28T10:28:50.424Z,4.43
2019-05-28T10:31:20.048Z,5.30
2019-05-28T10:33:51.643Z,7.60
2019-05-28T10:36:34.998Z,2.60
2019-05-28T10:38:55.013Z,3.17
2019-05-28T10:41:25.735Z,2.53
2019-05-28T10:43:56.736Z,4.83
2019-05-28T10:46:28.133Z,3.40
2019-05-28T10:48:58.927Z,2.40
2019-05-28T10:51:29.721Z,2.87
2019-05-28T10:54:06.026Z,3.50
2019-05-28T10:56:36.835Z,1.13
2019-05-28T10:59:07.513Z,1.93
2019-05-28T11:01:40.043Z,3.57
2019-05-28T11:04:10.827Z,3.00
2019-05-28T11:06:51.339Z,4.30
2019-05-28T11:09:14.339Z,3.07
2019-05-28T11:11:45.051Z,1.60
2019-05-28T11:14:16.033Z,2.13
2019-05-28T11:16:52.352Z,2.53
2019-05-28T11:19:23.161Z,2.40
2019-05-28T11:21:54.500Z,2.30
2019-05-28T11:24:25.236Z,2.10
2019-05-28T11:26:56.025Z,3.00
2019-05-28T11:29:27.064Z,2.83
2019-05-28T11:31:58.307Z,1.67
2019-05-28T11:34:28.967Z,2.87
2019-05-28T11:37:08.892Z,2.40
2019-05-28T11:39:32.345Z,3.23
2019-05-28T11:42:03.612Z,2.70
2019-05-28T11:44:34.245Z,2.27
2019-05-28T11:47:05.146Z,6.00
2019-05-28T11:49:35.989Z,2.83
2019-05-28T11:52:06.933Z,3.63
2019-05-28T11:54:37.585Z,2.43
2019-05-28T11:57:09.463Z,2.00
2019-05-28T11:59:40.192Z,4.63
2019-05-28T12:02:11.470Z,1.90
2019-05-28T12:04:42.389Z,5.27
2019-05-28T12:07:25.363Z,2.90
2019-05-28T12:09:45.541Z,2.40
2019-05-28T12:12:16.540Z,2.90
2019-05-28T12:14:47.805Z,2.17
2019-05-28T12:17:18.841Z,2.00
2019-05-28T12:19:49.551Z,1.87
2019-05-28T12:22:20.784Z,1.93
2019-05-28T12:24:52.059Z,1.83
2019-05-28T12:27:23.649Z,1.63
2019-05-28T12:29:55.014Z,2.97
2019-05-28T12:32:26.231Z,3.00
2019-05-28T12:34:57.555Z,2.33
2019-05-28T12:37:46.391Z,2.03
2019-05-28T12:40:01.953Z,4.10
2019-05-28T12:42:35.814Z,3.73
2019-05-28T12:45:09.723Z,2.37
2019-05-28T12:47:40.738Z,2.30
2019-05-28T12:50:20.029Z,3.10
2019-05-28T12:52:47.777Z,1.27
2019-05-28T12:55:20.738Z,2.60
2019-05-28T12:57:51.504Z,3.27
2019-05-28T13:00:24.449Z,2.63
2019-05-28T13:02:55.549Z,2.27
2019-05-28T13:05:28.471Z,2.70
2019-05-28T13:08:09.373Z,2.53
2019-05-28T13:10:34.527Z,2.77
2019-05-28T13:13:06.593Z,2.73
2019-05-28T13:15:42.200Z,2.83
2019-05-28T13:18:10.755Z,6.30
2019-05-28T13:20:41.309Z,2.43
2019-05-28T13:23:12.667Z,4.80
2019-05-28T13:25:44.078Z,3.63
2019-05-28T13:28:15.019Z,3.00
2019-05-28T13:30:46.433Z,1.83
2019-05-28T13:33:17.490Z,2.30
2019-05-28T13:35:49.089Z,0.77
2019-05-28T13:38:27.093Z,3.40
2019-05-28T13:40:52.568Z,3.10
2019-05-28T13:43:23.901Z,2.20
2019-05-28T13:45:54.916Z,2.13
2019-05-28T13:48:26.238Z,2.87
2019-05-28T13:50:57.057Z,2.50
2019-05-28T13:53:27.755Z,3.33
2019-05-28T13:55:59.382Z,1.63
2019-05-28T13:58:30.637Z,3.40
2019-05-28T14:01:02.452Z,2.47
2019-05-28T14:03:33.978Z,1.03
2019-05-28T14:06:06.826Z,1.63
2019-05-28T14:08:46.621Z,2.57
2019-05-28T14:11:10.246Z,2.40
2019-05-28T14:13:41.592Z,1.07
2019-05-28T14:16:13.131Z,2.57
2019-05-28T14:18:44.171Z,1.30
2019-05-28T14:21:15.417Z,2.57
2019-05-28T14:23:48.505Z,1.20
2019-05-28T14:26:19.639Z,1.57
2019-05-28T14:28:53.691Z,2.20
2019-05-28T14:31:23.333Z,4.13
2019-05-28T14:33:58.210Z,1.80
2019-05-28T14:36:30.203Z,2.27
2019-05-28T14:39:03.890Z,1.30
2019-05-28T14:41:34.879Z,1.90
2019-05-28T14:44:06.135Z,3.10
2019-05-28T14:46:37.401Z,3.60
2019-05-28T14:49:08.328Z,2.30
2019-05-28T14:51:39.853Z,2.70
2019-05-28T14:54:11.487Z,3.73
2019-05-28T14:56:42.537Z,2.50
2019-05-28T14:59:13.328Z,1.27
2019-05-28T15:01:44.219Z,2.07
2019-05-28T15:04:16.567Z,3.00
2019-05-28T15:06:48.496Z,2.47
2019-05-28T15:09:21.524Z,2.00
2019-05-28T15:11:54.517Z,6.67
2019-05-28T15:14:25.396Z,0.90
2019-05-28T15:16:56.502Z,2.60
2019-05-28T15:19:27.273Z,1.63
2019-05-28T15:21:58.074Z,1.80
2019-05-28T15:24:29.020Z,1.63
2019-05-28T15:26:59.980Z,4.47
2019-05-28T15:29:30.818Z,1.27
2019-05-28T15:32:06.683Z,1.30
2019-05-28T15:34:37.783Z,2.40
2019-05-28T15:37:08.647Z,1.33
2019-05-28T15:39:40.777Z,4.17
2019-05-28T15:42:19.885Z,5.33
2019-05-28T15:44:44.166Z,4.87
2019-05-28T15:47:15.080Z,3.47
2019-05-28T15:49:46.106Z,2.47
2019-05-28T15:52:17.455Z,2.47
2019-05-28T15:54:48.698Z,2.30
2019-05-28T15:57:19.426Z,1.53
2019-05-28T15:59:51.464Z,2.83
2019-05-28T16:02:22.375Z,1.73
2019-05-28T16:04:54.436Z,2.30
2019-05-28T16:07:25.438Z,5.33
2019-05-28T16:09:57.090Z,1.50
2019-05-28T16:12:27.800Z,1.10
2019-05-28T16:14:59.047Z,2.37
2019-05-28T16:17:30.074Z,3.13
2019-05-28T16:20:01.077Z,1.07
2019-05-28T16:22:34.222Z,2.67
2019-05-28T16:25:06.407Z,3.30
2019-05-28T16:27:37.653Z,2.47
2019-05-28T16:30:10.929Z,2.53
2019-05-28T16:32:47.642Z,2.40
2019-05-28T16:35:20.808Z,1.47
2019-05-28T16:37:51.986Z,3.23
2019-05-28T16:40:23.467Z,2.73
2019-05-28T16:42:54.501Z,2.23
2019-05-28T16:45:29.756Z,2.43
2019-05-28T16:48:02.396Z,3.23
2019-05-28T16:50:33.546Z,1.73
2019-05-28T16:53:04.745Z,2.13
2019-05-28T16:55:35.541Z,1.50
2019-05-28T16:58:06.710Z,1.63
2019-05-28T17:00:37.732Z,2.13
2019-05-28T17:03:10.244Z,3.67
2019-05-28T17:05:41.652Z,1.60
2019-05-28T17:08:13.637Z,3.13
2019-05-28T17:10:45.283Z,6.00
2019-05-28T17:13:16.401Z,1.87
2019-05-28T17:15:47.705Z,1.43
2019-05-28T17:18:18.910Z,2.57
2019-05-28T17:20:51.208Z,2.57
2019-05-28T17:23:22.342Z,1.60
2019-05-28T17:25:53.213Z,3.33
2019-05-28T17:28:24.554Z,1.03
2019-05-28T17:30:55.402Z,3.07
2019-05-28T17:33:27.087Z,2.40
2019-05-28T17:36:01.620Z,3.13
2019-05-28T17:38:32.989Z,2.30
2019-05-28T17:41:14.398Z,3.63
2019-05-28T17:43:46.556Z,2.77
2019-05-28T17:46:17.804Z,3.17
2019-05-28T17:48:50.104Z,1.43
2019-05-28T17:51:22.212Z,5.17
2019-05-28T17:53:53.300Z,4.13
2019-05-28T17:56:27.300Z,3.50
2019-05-28T17:58:59.975Z,2.17
2019-05-28T18:01:31.176Z,3.60
2019-05-28T18:04:02.194Z,1.63
2019-05-28T18:06:33.073Z,1.67
2019-05-28T18:09:06.283Z,1.67
2019-05-28T18:11:37.499Z,3.40
2019-05-28T18:14:11.729Z,2.13
2019-05-28T18:16:42.654Z,5.20
2019-05-28T18:19:14.257Z,3.60
2019-05-28T18:21:46.802Z,2.63
2019-05-28T18:24:20.956Z,2.40
2019-05-28T18:26:52.512Z,2.67
2019-05-28T18:29:23.751Z,2.40
2019-05-28T18:31:54.558Z,1.30
2019-05-28T18:34:29.126Z,2.27
2019-05-28T18:37:02.125Z,2.60
2019-05-28T18:39:33.958Z,2.80
2019-05-28T18:42:08.704Z,1.43
2019-05-28T18:44:39.552Z,3.83
2019-05-28T18:47:11.654Z,1.30
2019-05-28T18:49:42.350Z,1.73
2019-05-28T18:52:13.252Z,2.30
2019-05-28T18:54:44.360Z,2.23
2019-05-28T18:57:15.235Z,1.43
2019-05-28T18:59:45.965Z,2.50
2019-05-28T19:02:17.434Z,0.80
2019-05-28T19:04:49.312Z,2.37
2019-05-28T19:07:20.635Z,1.70
2019-05-28T19:09:51.982Z,3.13
2019-05-28T19:12:22.844Z,3.17
2019-05-28T19:14:53.933Z,3.00
2019-05-28T19:17:24.428Z,2.63
2019-05-28T19:19:54.978Z,3.40
2019-05-28T19:22:25.266Z,4.53
2019-05-28T19:24:57.422Z,2.20
2019-05-28T19:27:28.115Z,1.63
2019-05-28T19:29:58.519Z,4.67
2019-05-28T19:32:29.012Z,2.67
2019-05-28T19:35:00.694Z,3.27
2019-05-28T19:37:36.601Z,0.90
2019-05-28T19:40:07.487Z,0.93
2019-05-28T19:42:37.793Z,2.03
2019-05-28T19:45:09.132Z,1.90
2019-05-28T19:47:39.449Z,2.00
2019-05-28T19:50:12.766Z,1.37
2019-05-28T19:52:45.318Z,4.40
2019-05-28T19:55:15.617Z,4.23
2019-05-28T19:57:47.765Z,1.53
2019-05-28T20:00:18.333Z,1.60
2019-05-28T20:02:48.628Z,1.80
2019-05-28T20:05:18.993Z,4.37
2019-05-28T20:07:49.399Z,3.83
2019-05-28T20:10:21.029Z,4.10
2019-05-28T20:12:51.405Z,4.73
2019-05-28T20:15:24.055Z,2.20
2019-05-28T20:17:56.947Z,2.10
2019-05-28T20:20:27.495Z,3.70
2019-05-28T20:22:58.138Z,1.60
2019-05-28T20:25:33.859Z,4.03
2019-05-28T20:28:04.449Z,1.47
2019-05-28T20:30:34.991Z,1.87
2019-05-28T20:33:07.274Z,4.90
2019-05-28T20:35:38.553Z,2.50
2019-05-28T20:38:12.456Z,2.80
2019-05-28T20:40:46.883Z,1.03
2019-05-28T20:43:17.432Z,3.37
2019-05-28T20:46:06.591Z,2.73
2019-05-28T20:48:36.427Z,5.17
2019-05-28T20:51:20.026Z,5.20
2019-05-28T20:53:43.141Z,4.37
2019-05-28T20:56:20.602Z,2.17
2019-05-28T20:58:50.031Z,1.93
2019-05-28T21:01:23.111Z,3.97
2019-05-28T21:04:12.056Z,5.53
2019-05-28T21:06:42.860Z,4.70
2019-05-28T21:09:13.606Z,1.70
2019-05-28T21:11:48.246Z,4.83
2019-05-28T21:14:18.950Z,1.20
2019-05-28T21:16:49.419Z,2.17
2019-05-28T21:19:19.759Z,2.00
2019-05-28T21:21:51.420Z,2.67
2019-05-28T21:24:22.222Z,1.40
2019-05-28T21:26:52.547Z,3.13
2019-05-28T21:29:22.999Z,2.00
2019-05-28T21:31:56.586Z,2.17
2019-05-28T21:34:27.355Z,3.03
2019-05-28T21:36:59.131Z,3.80
2019-05-28T21:39:29.802Z,1.80
2019-05-28T21:42:01.758Z,0.70
2019-05-28T21:44:35.594Z,2.90
2019-05-28T21:47:07.767Z,1.23
2019-05-28T21:49:38.713Z,2.73
2019-05-28T21:52:12.250Z,2.67
2019-05-28T21:54:42.670Z,1.83
2019-05-28T21:57:16.125Z,2.20
2019-05-28T21:59:46.534Z,4.87
2019-05-28T22:02:17.172Z,2.60
2019-05-28T22:04:47.560Z,2.47
2019-05-28T22:07:17.929Z,3.20
2019-05-28T22:09:48.348Z,1.03
2019-05-28T22:12:18.857Z,3.90
2019-05-28T22:14:49.196Z,0.77
2019-05-28T22:17:19.686Z,2.47
2019-05-28T22:19:50.069Z,0.83
2019-05-28T22:22:20.538Z,1.27
2019-05-28T22:24:50.982Z,2.53
2019-05-28T22:27:21.453Z,4.37
2019-05-28T22:29:51.876Z,1.63
2019-05-28T22:32:22.412Z,1.13
2019-05-28T22:34:52.798Z,0.50
2019-05-28T22:37:23.166Z,2.27
2019-05-28T22:39:57.272Z,4.03
2019-05-28T22:42:27.729Z,2.40
2019-05-28T22:44:58.751Z,1.60
2019-05-28T22:47:29.179Z,1.13
2019-05-28T22:50:18.303Z,1.03
2019-05-28T22:52:31.627Z,2.47
2019-05-28T22:55:03.957Z,2.80
2019-05-28T22:57:34.508Z,1.90
2019-05-28T23:00:06.640Z,2.37
2019-05-28T23:02:37.119Z,0.90
2019-05-28T23:05:07.681Z,1.30
2019-05-28T23:07:40.648Z,4.00
2019-05-28T23:10:11.160Z,2.93
2019-05-28T23:12:41.595Z,2.80
2019-05-28T23:15:13.189Z,1.07
2019-05-28T23:17:43.843Z,1.60
2019-05-28T23:20:16.158Z,0.80
2019-05-28T23:22:48.407Z,1.13
2019-05-28T23:25:18.884Z,0.83
2019-05-28T23:27:49.303Z,3.60
2019-05-28T23:30:24.855Z,1.80
2019-05-28T23:32:52.521Z,2.57
2019-05-28T23:35:23.025Z,1.53
2019-05-28T23:37:53.355Z,1.53
2019-05-28T23:40:23.896Z,1.63
2019-05-28T23:42:54.284Z,2.63
2019-05-28T23:45:24.778Z,4.17
2019-05-28T23:47:55.829Z,1.90
2019-05-28T23:50:26.659Z,2.10
2019-05-28T23:52:57.059Z,2.47
2019-05-28T23:55:27.554Z,1.63
2019-05-28T23:57:57.954Z,2.33
